Time;durP1;ratioP1;P1;durP2;ratioP2;P2;SDS_P1;SDS_P2;PMS_P1;PMS_P2;Temp;Humidity;BMP_temperature;BMP_pressure;BME280_temperature;BME280_humidity;BME280_pressure;Samples;Min_cycle;Max_cycle;Signal;HPM_P1;HPM_P2
2023/08/17 00:01:55;;;;;;;6.55;2.60;;;23.00;75.00;;;;;;5009741;28;20087;-73
2023/08/17 00:04:21;;;;;;;8.00;2.67;;;23.00;70.30;;;;;;5012601;28;20033;-71
2023/08/17 00:06:47;;;;;;;4.40;2.78;;;23.00;72.10;;;;;;5012292;28;20030;-73
2023/08/17 00:09:12;;;;;;;3.90;2.20;;;23.10;70.10;;;;;;5013856;28;20041;-73
2023/08/17 00:11:38;;;;;;;4.18;2.45;;;23.10;69.40;;;;;;5009651;28;20061;-72
2023/08/17 00:14:05;;;;;;;4.28;2.45;;;23.30;69.00;;;;;;5009979;28;20056;-72
2023/08/17 00:16:30;;;;;;;5.70;3.42;;;23.30;68.90;;;;;;5017871;28;20025;-70
2023/08/17 00:18:56;;;;;;;8.80;2.60;;;23.30;68.20;;;;;;5011766;28;20044;-70
2023/08/17 00:21:21;;;;;;;3.70;2.07;;;23.30;69.30;;;;;;5019241;28;20064;-69
2023/08/17 00:23:47;;;;;;;4.93;2.53;;;23.30;68.30;;;;;;5016388;28;20034;-71
2023/08/17 00:26:14;;;;;;;7.07;2.80;;;23.40;70.00;;;;;;5028628;28;20045;-70
2023/08/17 00:28:39;;;;;;;3.15;2.28;;;23.40;67.90;;;;;;5012465;28;20116;-70
2023/08/17 00:31:05;;;;;;;4.43;2.90;;;23.50;69.30;;;;;;5015339;28;20108;-70
2023/08/17 00:33:31;;;;;;;4.13;2.50;;;23.60;67.40;;;;;;5015270;28;20037;-71
2023/08/17 00:35:56;;;;;;;8.10;2.60;;;23.50;68.10;;;;;;5010442;28;20053;-70
2023/08/17 00:38:22;;;;;;;4.33;2.60;;;23.40;67.80;;;;;;5018584;28;20512;-69
2023/08/17 00:40:48;;;;;;;3.50;2.57;;;23.30;70.10;;;;;;5012272;28;20050;-70
2023/08/17 00:43:13;;;;;;;10.13;2.35;;;23.40;68.60;;;;;;5011495;28;20406;-70
2023/08/17 00:45:40;;;;;;;5.38;2.28;;;23.50;67.90;;;;;;5010703;28;20505;-71
2023/08/17 00:48:07;;;;;;;7.35;2.33;;;23.40;67.80;;;;;;5016969;28;20045;-71
2023/08/17 00:50:35;;;;;;;5.10;1.90;;;23.50;68.10;;;;;;5012745;28;20033;-71
2023/08/17 00:53:01;;;;;;;5.97;2.33;;;23.60;66.90;;;;;;5013123;28;20037;-72
2023/08/17 00:55:26;;;;;;;9.70;2.30;;;23.50;67.00;;;;;;5015800;28;20840;-72
2023/08/17 00:57:55;;;;;;;11.65;2.70;;;23.50;67.80;;;;;;5008562;28;20049;-71
2023/08/17 01:00:21;;;;;;;7.47;2.33;;;23.70;66.00;;;;;;5011893;28;20033;-72
2023/08/17 01:02:48;;;;;;;8.68;2.60;;;23.80;65.90;;;;;;5014713;28;20139;-70
2023/08/17 01:05:13;;;;;;;5.05;2.22;;;23.70;65.90;;;;;;5013136;28;20080;-72
2023/08/17 01:07:39;;;;;;;3.43;2.40;;;23.60;68.10;;;;;;5011605;28;20091;-72
2023/08/17 01:10:07;;;;;;;4.63;2.22;;;23.40;69.20;;;;;;5006655;28;20037;-72
2023/08/17 01:12:43;;;;;;;6.60;2.17;;;23.60;66.60;;;;;;5008395;28;20677;-73
2023/08/17 01:15:24;;;;;;;6.10;2.45;;;23.50;69.50;;;;;;5010755;28;20029;-72
2023/08/17 01:17:58;;;;;;;3.35;2.47;;;23.20;71.20;;;;;;5004101;28;20065;-72
2023/08/17 01:20:25;;;;;;;4.18;2.72;;;23.10;70.80;;;;;;5004231;28;20421;-72
2023/08/17 01:22:56;;;;;;;3.72;2.30;;;23.10;72.70;;;;;;5013793;28;20040;-73
2023/08/17 01:25:22;;;;;;;5.65;2.65;;;22.90;71.50;;;;;;5009716;28;20026;-72
2023/08/17 01:27:48;;;;;;;5.85;2.42;;;22.80;73.40;;;;;;5005419;28;20064;-71
2023/08/17 01:30:16;;;;;;;4.73;2.47;;;22.80;74.70;;;;;;5013069;28;20042;-72
2023/08/17 01:32:58;;;;;;;7.35;2.40;;;22.70;72.70;;;;;;5011579;28;20030;-72
2023/08/17 01:35:33;;;;;;;3.55;2.30;;;22.80;71.20;;;;;;5014498;28;20034;-72
2023/08/17 01:38:05;;;;;;;5.60;2.42;;;22.80;74.90;;;;;;5014198;28;20041;-73
2023/08/17 01:40:34;;;;;;;9.88;2.50;;;22.90;74.40;;;;;;5015250;28;20402;-72
2023/08/17 01:43:01;;;;;;;10.57;3.85;;;23.20;73.50;;;;;;5012727;28;21946;-72
2023/08/17 01:45:27;;;;;;;5.90;2.50;;;23.10;75.50;;;;;;5013302;28;20026;-72
2023/08/17 01:47:54;;;;;;;3.63;2.40;;;22.90;81.60;;;;;;5005394;28;20133;-71
2023/08/17 01:50:20;;;;;;;3.78;2.50;;;22.60;78.20;;;;;;5014066;28;20029;-72
2023/08/17 01:52:45;;;;;;;4.17;2.40;;;22.60;74.70;;;;;;5017441;28;20029;-70
2023/08/17 01:55:11;;;;;;;9.93;3.00;;;22.80;75.30;;;;;;5013058;28;20117;-70
2023/08/17 01:57:36;;;;;;;4.43;2.80;;;22.80;81.40;;;;;;5007492;28;20722;-71
2023/08/17 02:00:06;;;;;;;5.70;2.70;;;22.90;80.50;;;;;;5007243;28;20065;-70
2023/08/17 02:02:32;;;;;;;8.95;2.78;;;22.90;78.40;;;;;;5016154;28;20065;-71
2023/08/17 02:04:57;;;;;;;3.60;2.90;;;22.90;79.90;;;;;;5026113;28;20442;-70
2023/08/17 02:07:23;;;;;;;5.60;2.50;;;22.70;81.00;;;;;;5020882;28;20292;-70
2023/08/17 02:09:49;;;;;;;3.33;2.90;;;22.70;78.50;;;;;;5006211;28;20037;-70
2023/08/17 02:12:14;;;;;;;5.93;2.63;;;22.60;85.40;;;;;;5001025;28;20078;-69
2023/08/17 02:14:40;;;;;;;3.77;2.70;;;22.50;81.60;;;;;;5008238;28;20041;-69
2023/08/17 02:17:05;;;;;;;5.20;2.40;;;22.50;84.20;;;;;;5017369;28;20176;-70
2023/08/17 02:19:32;;;;;;;3.87;3.03;;;22.50;86.20;;;;;;5016652;28;20026;-70
2023/08/17 02:21:58;;;;;;;4.40;2.50;;;22.40;84.00;;;;;;5014331;28;20129;-72
2023/08/17 02:24:24;;;;;;;8.43;2.60;;;22.30;85.20;;;;;;5012606;28;20549;-71
2023/08/17 02:26:50;;;;;;;5.45;3.10;;;22.20;80.00;;;;;;5023617;28;20041;-71
2023/08/17 02:29:16;;;;;;;3.60;2.60;;;22.10;81.80;;;;;;5009292;28;20030;-70
2023/08/17 02:31:41;;;;;;;4.53;3.00;;;22.20;84.70;;;;;;5013136;28;20880;-71
2023/08/17 02:34:07;;;;;;;3.43;2.80;;;22.30;86.60;;;;;;5011480;28;20113;-71
2023/08/17 02:36:33;;;;;;;5.45;3.35;;;22.20;88.60;;;;;;5009508;28;20033;-69
2023/08/17 02:38:59;;;;;;;6.37;3.57;;;22.20;88.80;;;;;;5017409;28;20493;-71
2023/08/17 02:41:24;;;;;;;4.97;2.97;;;22.20;87.50;;;;;;5012755;28;20439;-70
2023/08/17 02:43:50;;;;;;;7.72;2.70;;;22.30;89.30;;;;;;5012404;28;20037;-70
2023/08/17 02:46:16;;;;;;;8.30;3.17;;;22.30;85.40;;;;;;5018010;28;20025;-70
2023/08/17 02:48:41;;;;;;;5.13;2.80;;;22.40;86.90;;;;;;5012953;28;20760;-72
2023/08/17 02:51:07;;;;;;;3.33;2.67;;;22.30;85.30;;;;;;5007254;28;20113;-71
2023/08/17 02:53:33;;;;;;;5.07;2.63;;;22.20;85.10;;;;;;4997810;28;20289;-71
2023/08/17 02:55:58;;;;;;;5.93;3.17;;;22.30;85.50;;;;;;5007840;28;20083;-72
2023/08/17 02:58:24;;;;;;;7.57;3.13;;;22.30;81.80;;;;;;5001691;28;20034;-71
2023/08/17 03:00:53;;;;;;;3.63;2.65;;;22.30;83.10;;;;;;5010750;28;20057;-72
2023/08/17 03:03:19;;;;;;;7.57;3.22;;;22.40;85.70;;;;;;5002257;28;20491;-72
2023/08/17 03:05:45;;;;;;;8.95;3.35;;;22.60;85.50;;;;;;5002156;28;20137;-70
2023/08/17 03:08:11;;;;;;;4.83;3.30;;;22.60;87.10;;;;;;5003931;28;20665;-70
2023/08/17 03:10:37;;;;;;;7.68;3.30;;;22.60;88.30;;;;;;5012441;28;20125;-71
2023/08/17 03:13:03;;;;;;;5.68;3.63;;;22.50;89.30;;;;;;5003368;28;20041;-71
2023/08/17 03:15:29;;;;;;;9.40;3.63;;;22.30;89.40;;;;;;5006382;28;20045;-71
2023/08/17 03:17:55;;;;;;;9.65;3.22;;;22.00;89.30;;;;;;5005441;28;20045;-72
2023/08/17 03:20:20;;;;;;;7.13;3.70;;;21.90;89.60;;;;;;5001630;28;20205;-71
2023/08/17 03:22:46;;;;;;;4.97;3.17;;;21.90;89.40;;;;;;5001531;28;20022;-71
2023/08/17 03:25:12;;;;;;;8.33;3.77;;;21.80;90.30;;;;;;5002468;28;20030;-72
2023/08/17 03:27:37;;;;;;;5.43;3.00;;;21.80;90.60;;;;;;5008056;28;20455;-71
2023/08/17 03:30:05;;;;;;;7.70;3.77;;;21.90;91.30;;;;;;5001643;28;20137;-72
2023/08/17 03:32:31;;;;;;;5.60;3.45;;;21.70;92.00;;;;;;5002516;28;20068;-71
2023/08/17 03:34:56;;;;;;;6.22;3.17;;;21.60;92.50;;;;;;5015061;28;20428;-70
2023/08/17 03:37:22;;;;;;;6.77;3.40;;;21.40;93.00;;;;;;5011266;28;20037;-71
2023/08/17 03:39:48;;;;;;;4.78;3.47;;;21.40;94.00;;;;;;5008136;28;20300;-71
2023/08/17 03:42:13;;;;;;;9.63;3.60;;;21.50;93.20;;;;;;5002801;28;20038;-70
2023/08/17 03:44:39;;;;;;;7.27;4.13;;;21.60;92.90;;;;;;5007694;28;20033;-72
2023/08/17 03:47:05;;;;;;;6.85;3.17;;;21.60;94.20;;;;;;5020322;28;20042;-72
2023/08/17 03:49:30;;;;;;;7.73;3.70;;;21.60;93.60;;;;;;5014331;28;20532;-70
2023/08/17 03:51:56;;;;;;;5.77;3.23;;;21.70;92.30;;;;;;5008707;28;20116;-72
2023/08/17 03:54:21;;;;;;;5.17;3.50;;;21.70;92.10;;;;;;5013689;28;20026;-70
2023/08/17 03:56:47;;;;;;;6.80;3.87;;;21.70;91.40;;;;;;5015546;28;20441;-71
2023/08/17 03:59:13;;;;;;;6.87;4.10;;;21.60;92.30;;;;;;5009755;28;20131;-71
2023/08/17 04:01:39;;;;;;;5.63;3.67;;;21.60;92.20;;;;;;5003003;28;20038;-71
2023/08/17 04:04:05;;;;;;;6.83;3.80;;;21.50;91.50;;;;;;5008348;28;20084;-70
2023/08/17 04:06:31;;;;;;;7.63;3.70;;;21.40;91.80;;;;;;5006280;28;20062;-71
2023/08/17 04:08:56;;;;;;;12.75;3.85;;;21.40;91.70;;;;;;5011114;28;20292;-71
2023/08/17 04:11:22;;;;;;;9.53;3.60;;;21.30;92.40;;;;;;5004064;28;20050;-70
2023/08/17 04:13:48;;;;;;;7.33;4.73;;;21.40;91.70;;;;;;5005296;28;20328;-71
2023/08/17 04:16:13;;;;;;;8.40;3.27;;;21.30;92.50;;;;;;5006023;28;20307;-70
2023/08/17 04:18:39;;;;;;;5.27;3.60;;;20.80;92.90;;;;;;5006905;28;20588;-69
2023/08/17 04:21:04;;;;;;;5.97;3.47;;;20.90;93.80;;;;;;5008114;28;20076;-70
2023/08/17 04:23:30;;;;;;;5.73;3.17;;;20.90;92.90;;;;;;5014590;28;20520;-70
2023/08/17 04:25:55;;;;;;;7.07;3.57;;;20.90;93.20;;;;;;5008830;28;20041;-70
2023/08/17 04:28:21;;;;;;;11.17;3.03;;;20.90;93.00;;;;;;5007954;28;20459;-70
2023/08/17 04:30:47;;;;;;;4.70;3.23;;;20.90;92.50;;;;;;5003565;28;20092;-70
2023/08/17 04:33:12;;;;;;;7.60;3.40;;;20.80;93.60;;;;;;5003966;28;20295;-69
2023/08/17 04:35:39;;;;;;;6.40;3.47;;;20.80;93.70;;;;;;5009884;28;20025;-70
2023/08/17 04:38:05;;;;;;;7.50;3.92;;;20.80;94.10;;;;;;5007701;28;20061;-70
2023/08/17 04:40:31;;;;;;;10.05;3.63;;;20.70;93.70;;;;;;5000147;28;20128;-70
2023/08/17 04:42:57;;;;;;;6.68;3.72;;;20.80;94.50;;;;;;5002481;28;20080;-71
2023/08/17 04:45:23;;;;;;;7.70;3.40;;;21.00;94.30;;;;;;5007252;28;20416;-70
2023/08/17 04:47:49;;;;;;;7.88;3.15;;;21.00;93.80;;;;;;5002804;28;20061;-70
2023/08/17 04:50:16;;;;;;;10.10;4.00;;;21.10;91.90;;;;;;4999233;28;20109;-71
2023/08/17 04:52:45;;;;;;;6.07;3.78;;;21.20;91.60;;;;;;5013400;28;20493;-69
2023/08/17 04:55:11;;;;;;;6.93;3.35;;;21.10;92.80;;;;;;4999298;28;20037;-70
2023/08/17 04:57:37;;;;;;;7.28;3.38;;;21.10;94.90;;;;;;5003971;28;20022;-70
2023/08/17 05:00:04;;;;;;;5.83;3.33;;;21.20;91.30;;;;;;5007806;28;20073;-70
2023/08/17 05:02:30;;;;;;;13.57;3.72;;;21.20;91.20;;;;;;5011290;28;20046;-71
2023/08/17 05:04:56;;;;;;;6.13;3.28;;;21.20;91.10;;;;;;5002084;28;20086;-68
2023/08/17 05:07:21;;;;;;;4.27;3.20;;;21.20;91.70;;;;;;5010034;28;20615;-71
2023/08/17 05:09:47;;;;;;;8.80;3.50;;;21.10;92.20;;;;;;5011839;28;20088;-71
2023/08/17 05:12:13;;;;;;;7.20;3.40;;;21.10;92.30;;;;;;5004065;28;20038;-71
2023/08/17 05:14:39;;;;;;;6.47;3.00;;;21.20;91.80;;;;;;5004985;28;20044;-70
2023/08/17 05:17:04;;;;;;;7.57;3.40;;;21.30;91.40;;;;;;5010635;28;20034;-70
2023/08/17 05:19:30;;;;;;;4.70;3.30;;;21.30;91.70;;;;;;5014294;28;20037;-70
2023/08/17 05:21:56;;;;;;;11.97;4.00;;;21.20;91.50;;;;;;5004222;28;20538;-71
2023/08/17 05:24:21;;;;;;;7.87;3.40;;;21.30;91.40;;;;;;5007649;28;20026;-72
2023/08/17 05:26:47;;;;;;;9.30;4.23;;;21.20;91.60;;;;;;5004010;28;20038;-72
2023/08/17 05:29:12;;;;;;;22.87;4.37;;;21.30;91.40;;;;;;5013903;28;20030;-71
2023/08/17 05:31:38;;;;;;;11.47;4.23;;;21.40;91.50;;;;;;5017412;28;20757;-71
2023/08/17 05:34:04;;;;;;;20.33;4.50;;;21.40;91.30;;;;;;5009179;28;20037;-72
2023/08/17 05:36:29;;;;;;;10.00;4.00;;;21.30;91.40;;;;;;5022965;28;20022;-71
2023/08/17 05:38:55;;;;;;;7.93;4.40;;;21.40;91.20;;;;;;5004301;28;20041;-71
2023/08/17 05:41:20;;;;;;;9.00;3.53;;;21.40;91.70;;;;;;5009037;28;20045;-71
2023/08/17 05:43:48;;;;;;;16.73;3.43;;;21.20;92.20;;;;;;5001704;28;20026;-71
2023/08/17 05:46:14;;;;;;;8.70;3.35;;;21.10;92.60;;;;;;5001574;28;20038;-71
2023/08/17 05:48:41;;;;;;;9.48;3.15;;;21.20;93.00;;;;;;5002031;28;20048;-72
2023/08/17 05:51:06;;;;;;;10.40;4.15;;;21.20;92.40;;;;;;5002773;28;20026;-72
2023/08/17 05:53:32;;;;;;;8.30;4.00;;;21.30;92.60;;;;;;5006432;28;20049;-72
2023/08/17 05:55:58;;;;;;;6.03;3.17;;;21.40;93.70;;;;;;5005153;28;20049;-71
2023/08/17 05:58:24;;;;;;;11.83;3.50;;;21.60;93.00;;;;;;5001632;28;20042;-71
2023/08/17 06:00:49;;;;;;;9.30;3.80;;;21.50;93.00;;;;;;5007314;28;20510;-71
2023/08/17 06:03:15;;;;;;;8.97;3.70;;;21.50;94.40;;;;;;4997925;28;20165;-72
2023/08/17 06:05:41;;;;;;;5.43;3.23;;;21.50;93.90;;;;;;5011355;28;20025;-72
2023/08/17 06:08:06;;;;;;;7.20;3.70;;;21.50;95.10;;;;;;5007272;28;20029;-71
2023/08/17 06:10:32;;;;;;;5.50;3.30;;;21.80;94.10;;;;;;5001302;28;20057;-73
2023/08/17 06:12:58;;;;;;;14.17;4.20;;;21.90;93.10;;;;;;5001160;28;20509;-72
2023/08/17 06:15:24;;;;;;;8.20;3.33;;;22.00;93.40;;;;;;5008965;28;20030;-69
2023/08/17 06:17:50;;;;;;;4.90;3.20;;;21.60;94.30;;;;;;5006575;28;20041;-70
2023/08/17 06:20:16;;;;;;;5.88;3.47;;;21.70;95.40;;;;;;5002470;28;20050;-69
2023/08/17 06:22:41;;;;;;;14.00;4.43;;;21.80;95.30;;;;;;5002630;28;20029;-70
2023/08/17 06:25:08;;;;;;;8.67;3.43;;;21.90;94.70;;;;;;5003776;28;20120;-70
2023/08/17 06:27:35;;;;;;;5.63;3.65;;;21.90;93.80;;;;;;5020608;28;20026;-69
2023/08/17 06:30:04;;;;;;;8.38;3.50;;;22.20;92.80;;;;;;5005923;28;20040;-70
2023/08/17 06:32:30;;;;;;;11.52;3.95;;;22.20;92.40;;;;;;5007179;28;20029;-70
2023/08/17 06:34:57;;;;;;;9.02;4.25;;;22.20;92.30;;;;;;5008221;28;20025;-70
2023/08/17 06:37:23;;;;;;;6.88;3.72;;;22.10;92.60;;;;;;5007914;28;20452;-71
2023/08/17 06:39:48;;;;;;;9.23;4.32;;;21.80;94.20;;;;;;5004323;28;20042;-71
2023/08/17 06:42:14;;;;;;;8.30;4.10;;;21.60;96.80;;;;;;5010118;28;20030;-70
2023/08/17 06:44:39;;;;;;;12.20;3.80;;;21.70;95.50;;;;;;5009510;28;20065;-70
2023/08/17 06:47:05;;;;;;;7.53;3.65;;;21.90;94.10;;;;;;5006307;28;20335;-71
2023/08/17 06:49:31;;;;;;;9.03;3.90;;;22.10;93.90;;;;;;5014364;28;20041;-70
2023/08/17 06:51:57;;;;;;;6.28;3.70;;;22.00;95.20;;;;;;5012542;28;20033;-69
2023/08/17 06:54:22;;;;;;;7.97;3.65;;;22.00;95.40;;;;;;5002343;28;20033;-69
2023/08/17 06:56:48;;;;;;;10.43;4.00;;;22.30;95.30;;;;;;5004647;28;20034;-69
2023/08/17 06:59:14;;;;;;;7.47;3.60;;;22.50;93.10;;;;;;5001111;28;20037;-69
2023/08/17 07:01:39;;;;;;;11.27;3.63;;;22.40;93.00;;;;;;5000027;28;20520;-69
2023/08/17 07:04:05;;;;;;;6.90;3.30;;;22.60;91.40;;;;;;4996442;28;20538;-69
2023/08/17 07:06:31;;;;;;;5.23;3.17;;;22.80;90.30;;;;;;5007080;28;20088;-69
2023/08/17 07:08:56;;;;;;;15.93;3.83;;;22.90;87.10;;;;;;5007765;28;20091;-69
2023/08/17 07:11:22;;;;;;;6.43;2.83;;;23.30;86.30;;;;;;5018581;28;20057;-69
2023/08/17 07:13:48;;;;;;;14.88;3.70;;;23.70;85.40;;;;;;5017010;28;20448;-69
2023/08/17 07:16:13;;;;;;;8.97;3.40;;;24.30;85.20;;;;;;5005788;28;20405;-69
2023/08/17 07:18:39;;;;;;;9.25;3.55;;;24.70;82.70;;;;;;5006897;28;20065;-69
2023/08/17 07:21:05;;;;;;;8.52;3.22;;;24.80;80.10;;;;;;5012628;28;20045;-69
2023/08/17 07:23:31;;;;;;;5.25;3.28;;;24.70;81.20;;;;;;5010756;28;20376;-69
2023/08/17 07:25:57;;;;;;;6.00;2.58;;;24.80;79.00;;;;;;5008096;28;20061;-69
2023/08/17 07:28:22;;;;;;;5.50;3.17;;;24.50;77.90;;;;;;5011740;28;20058;-70
2023/08/17 07:30:48;;;;;;;11.43;3.20;;;24.40;78.80;;;;;;5013672;28;20324;-70
2023/08/17 07:33:13;;;;;;;8.80;2.90;;;24.40;81.00;;;;;;5014909;28;20125;-69
2023/08/17 07:35:39;;;;;;;6.63;3.50;;;24.40;77.60;;;;;;5009366;28;20034;-69
2023/08/17 07:38:05;;;;;;;10.60;3.23;;;24.50;78.00;;;;;;5010415;28;20823;-69
2023/08/17 07:40:31;;;;;;;12.80;3.15;;;24.60;82.10;;;;;;5009541;28;20034;-69
2023/08/17 07:42:56;;;;;;;8.73;3.15;;;24.70;80.10;;;;;;5002110;28;20026;-69
2023/08/17 07:45:22;;;;;;;6.47;2.87;;;24.70;82.60;;;;;;5010874;28;20106;-69
2023/08/17 07:47:47;;;;;;;13.13;3.53;;;24.80;78.90;;;;;;5002139;28;20033;-69
2023/08/17 07:50:13;;;;;;;9.93;2.97;;;25.00;81.60;;;;;;5002796;28;20085;-68
2023/08/17 07:52:38;;;;;;;11.17;3.00;;;25.20;81.70;;;;;;5009010;28;20060;-68
2023/08/17 07:55:05;;;;;;;5.77;3.40;;;25.30;79.10;;;;;;5000709;28;20042;-68
2023/08/17 07:57:30;;;;;;;6.78;3.70;;;25.40;81.60;;;;;;5003083;28;20369;-68
2023/08/17 07:59:56;;;;;;;5.47;3.27;;;25.90;82.90;;;;;;5017344;28;20108;-67
2023/08/17 08:02:21;;;;;;;10.37;3.73;;;26.60;81.50;;;;;;5010799;28;20969;-67
2023/08/17 08:04:47;;;;;;;10.75;4.05;;;28.40;74.50;;;;;;5004023;28;20030;-68
2023/08/17 08:07:13;;;;;;;7.03;3.30;;;27.70;72.50;;;;;;5008528;28;20116;-68
2023/08/17 08:09:38;;;;;;;10.43;3.88;;;27.20;74.70;;;;;;5010572;28;20797;-67
2023/08/17 08:12:05;;;;;;;13.27;3.23;;;26.90;76.40;;;;;;5006105;28;20584;-67
2023/08/17 08:14:30;;;;;;;8.60;3.72;;;27.50;74.30;;;;;;5002141;28;20022;-67
2023/08/17 08:16:56;;;;;;;7.65;3.30;;;29.20;70.20;;;;;;5008192;28;20459;-67
2023/08/17 08:19:22;;;;;;;8.65;3.00;;;29.40;69.20;;;;;;5006774;28;21908;-68
2023/08/17 08:21:47;;;;;;;4.57;3.08;;;29.10;66.60;;;;;;5007276;28;20029;-68
2023/08/17 08:24:13;;;;;;;7.70;2.60;;;29.10;66.70;;;;;;5000306;28;20084;-67
2023/08/17 08:26:38;;;;;;;11.10;3.43;;;29.60;66.50;;;;;;5011576;28;20456;-69
2023/08/17 08:29:04;;;;;;;8.40;4.53;;;28.70;64.40;;;;;;5009295;28;20331;-68
2023/08/17 08:31:29;;;;;;;5.88;2.67;;;28.40;64.90;;;;;;5007588;28;20042;-69
2023/08/17 08:33:55;;;;;;;5.80;3.03;;;28.60;68.30;;;;;;5006359;28;20041;-68
2023/08/17 08:36:21;;;;;;;6.28;2.63;;;28.30;65.50;;;;;;5010795;28;20046;-68
2023/08/17 08:38:46;;;;;;;6.75;2.97;;;28.30;69.80;;;;;;5006948;28;20422;-68
2023/08/17 08:41:12;;;;;;;5.13;3.13;;;28.10;67.80;;;;;;5001323;28;20133;-68
2023/08/17 08:43:38;;;;;;;4.25;2.80;;;28.00;66.50;;;;;;5006864;28;20026;-68
2023/08/17 08:46:05;;;;;;;11.52;3.20;;;28.00;64.00;;;;;;5006603;28;20038;-68
2023/08/17 08:48:32;;;;;;;6.07;2.78;;;28.30;65.00;;;;;;5003506;28;20763;-68
2023/08/17 08:51:00;;;;;;;8.55;2.83;;;28.40;65.10;;;;;;5006364;28;20442;-68
2023/08/17 08:53:33;;;;;;;3.80;2.55;;;28.50;63.80;;;;;;5012026;28;20904;-68
2023/08/17 08:56:00;;;;;;;7.43;3.08;;;29.10;62.10;;;;;;5013825;28;20037;-68
2023/08/17 08:58:27;;;;;;;4.07;2.78;;;29.40;65.30;;;;;;5006477;28;20425;-68
2023/08/17 09:00:54;;;;;;;4.30;2.63;;;30.00;60.90;;;;;;5006879;28;20042;-68
2023/08/17 09:03:21;;;;;;;6.45;3.03;;;30.80;57.30;;;;;;5006342;28;20033;-68
2023/08/17 09:05:50;;;;;;;11.70;2.85;;;32.60;57.70;;;;;;5007913;28;20068;-67
2023/08/17 09:08:25;;;;;;;5.55;2.70;;;32.20;57.50;;;;;;5009602;28;20035;-68
2023/08/17 09:10:51;;;;;;;7.78;3.13;;;31.50;58.00;;;;;;5000899;28;20054;-68
2023/08/17 09:13:16;;;;;;;5.45;2.75;;;30.30;59.70;;;;;;5007075;28;20124;-70
2023/08/17 09:15:42;;;;;;;4.78;2.47;;;30.20;62.10;;;;;;5005414;28;20029;-69
2023/08/17 09:18:08;;;;;;;4.75;3.05;;;30.20;63.70;;;;;;5002468;28;20523;-67
2023/08/17 09:20:44;;;;;;;7.82;3.10;;;33.10;57.40;;;;;;5011478;28;20042;-68
2023/08/17 09:23:19;;;;;;;8.27;2.47;;;36.60;52.80;;;;;;5010139;28;20034;-68
2023/08/17 09:25:46;;;;;;;9.00;3.30;;;37.40;53.40;;;;;;5006319;28;20141;-70
2023/08/17 09:28:17;;;;;;;6.63;2.92;;;38.00;52.70;;;;;;5004368;28;20100;-69
2023/08/17 09:30:56;;;;;;;4.53;3.33;;;37.50;50.30;;;;;;5001485;28;20559;-70
2023/08/17 09:33:23;;;;;;;6.07;2.90;;;35.60;50.60;;;;;;5009707;28;20026;-68
2023/08/17 09:35:50;;;;;;;8.60;3.53;;;33.80;53.60;;;;;;5002202;28;20121;-70
2023/08/17 09:38:17;;;;;;;6.97;2.95;;;35.90;54.30;;;;;;5003157;28;20177;-68
2023/08/17 09:40:42;;;;;;;6.70;3.05;;;39.10;51.50;;;;;;5008194;28;20454;-70
2023/08/17 09:43:09;;;;;;;5.75;3.17;;;40.10;48.20;;;;;;5003441;28;20030;-70
2023/08/17 09:45:37;;;;;;;7.68;3.08;;;41.40;49.20;;;;;;5002766;28;20061;-68
2023/08/17 09:48:03;;;;;;;4.90;2.50;;;40.30;47.40;;;;;;5006159;28;20050;-68
2023/08/17 09:50:29;;;;;;;3.80;2.50;;;40.50;45.70;;;;;;5003625;28;20784;-67
2023/08/17 09:52:55;;;;;;;9.23;3.10;;;40.30;45.40;;;;;;5012626;28;20026;-66
2023/08/17 09:55:24;;;;;;;14.52;3.13;;;40.50;46.50;;;;;;4998321;28;20124;-67
2023/08/17 09:57:51;;;;;;;9.90;3.00;;;40.40;45.00;;;;;;5012549;28;20033;-67
2023/08/17 10:00:17;;;;;;;5.90;2.88;;;40.70;44.80;;;;;;5007099;28;20398;-67
2023/08/17 10:02:45;;;;;;;5.22;2.75;;;41.10;43.70;;;;;;4999966;28;20040;-67
2023/08/17 10:05:12;;;;;;;7.38;2.55;;;40.00;45.60;;;;;;5002605;28;20561;-67
2023/08/17 10:07:48;;;;;;;4.25;2.78;;;38.40;45.80;;;;;;5004069;28;20061;-70
2023/08/17 10:10:18;;;;;;;12.75;2.90;;;39.50;45.50;;;;;;4993662;28;20432;-69
2023/08/17 10:12:53;;;;;;;6.05;2.60;;;39.90;43.60;;;;;;5007586;28;20093;-69
2023/08/17 10:15:21;;;;;;;5.13;2.65;;;38.60;44.20;;;;;;4999557;28;20498;-69
2023/08/17 10:17:57;;;;;;;5.40;2.63;;;40.20;46.50;;;;;;5007442;28;20033;-70
2023/08/17 10:20:26;;;;;;;6.97;2.83;;;40.40;44.10;;;;;;5004819;28;20049;-70
2023/08/17 10:22:54;;;;;;;7.03;2.60;;;39.80;45.00;;;;;;5008598;28;20113;-70
2023/08/17 10:25:23;;;;;;;8.20;3.15;;;39.00;44.40;;;;;;5007221;28;20025;-70
2023/08/17 10:27:51;;;;;;;3.95;2.63;;;39.20;44.00;;;;;;4999623;28;20029;-67
2023/08/17 10:30:17;;;;;;;9.73;3.55;;;39.50;44.20;;;;;;5009095;28;20571;-68
2023/08/17 10:32:45;;;;;;;5.55;2.78;;;39.40;44.80;;;;;;5005499;28;20029;-68
2023/08/17 10:35:11;;;;;;;7.60;3.05;;;40.00;44.60;;;;;;5008751;28;20118;-66
2023/08/17 10:37:38;;;;;;;4.63;2.50;;;39.20;44.50;;;;;;5016187;28;20747;-68
2023/08/17 10:40:04;;;;;;;7.88;3.15;;;38.70;45.20;;;;;;5011566;28;20027;-68
2023/08/17 10:42:35;;;;;;;7.88;2.50;;;37.10;46.30;;;;;;5002382;28;20038;-69
2023/08/17 10:45:03;;;;;;;8.13;2.45;;;35.80;48.70;;;;;;5013797;28;20582;-70
2023/08/17 10:47:31;;;;;;;10.95;2.50;;;35.00;47.20;;;;;;5005414;28;20045;-69
2023/08/17 10:50:21;;;;;;;5.53;2.50;;;34.40;50.00;;;;;;4997355;28;20402;-68
2023/08/17 10:52:48;;;;;;;9.65;3.00;;;34.10;48.20;;;;;;5008827;28;20031;-69
2023/08/17 10:55:14;;;;;;;9.13;2.72;;;33.50;48.40;;;;;;5011886;28;20792;-69
2023/08/17 10:57:41;;;;;;;5.95;2.55;;;33.20;50.70;;;;;;5004385;28;20057;-68
2023/08/17 11:00:26;;;;;;;10.07;2.92;;;33.00;49.60;;;;;;5004489;28;20037;-70
2023/08/17 11:02:59;;;;;;;8.65;2.80;;;32.90;48.90;;;;;;5006712;28;20092;-70
2023/08/17 11:05:44;;;;;;;7.22;2.38;;;32.50;48.80;;;;;;5008033;28;20068;-67
2023/08/17 11:08:33;;;;;;;6.75;2.60;;;32.40;50.70;;;;;;5000698;28;20040;-68
2023/08/17 11:11:04;;;;;;;8.90;2.72;;;32.50;50.60;;;;;;5009289;28;20046;-68
2023/08/17 11:13:31;;;;;;;9.00;2.20;;;32.70;50.80;;;;;;5008004;28;20021;-69
2023/08/17 11:15:58;;;;;;;6.20;2.20;;;32.90;50.90;;;;;;5001424;28;20053;-69
2023/08/17 11:18:24;;;;;;;10.45;3.28;;;33.00;51.80;;;;;;5004163;28;20037;-68
2023/08/17 11:20:50;;;;;;;;;;;32.90;50.20;;;;;;5006307;28;20379;-68
2023/08/17 11:23:16;;;;;;;6.22;2.75;;;33.00;50.90;;;;;;5001894;28;19914;-68
2023/08/17 11:25:42;;;;;;;13.63;2.75;;;33.20;52.30;;;;;;5006117;28;20413;-68
2023/08/17 11:28:08;;;;;;;6.78;2.63;;;33.30;50.00;;;;;;5007985;28;20104;-67
2023/08/17 11:30:36;;;;;;;6.93;3.00;;;33.40;49.50;;;;;;5004110;28;20120;-67
2023/08/17 11:33:03;;;;;;;9.18;2.88;;;33.60;50.80;;;;;;5007048;28;20515;-67
2023/08/17 11:35:28;;;;;;;8.13;2.15;;;33.70;48.10;;;;;;5005215;28;20494;-68
2023/08/17 11:37:54;;;;;;;;;;;33.80;47.80;;;;;;5008483;28;20087;-67
2023/08/17 11:40:20;;;;;;;7.70;2.70;;;33.70;43.60;;;;;;5003904;28;19917;-68
2023/08/17 11:42:46;;;;;;;;;;;33.50;44.80;;;;;;5013573;28;20073;-68
2023/08/17 11:45:12;;;;;;;8.77;2.63;;;33.80;47.40;;;;;;5007650;28;20323;-68
2023/08/17 11:47:39;;;;;;;12.65;2.95;;;34.10;46.00;;;;;;5007236;28;20026;-68
2023/08/17 11:50:06;;;;;;;6.43;2.10;;;34.20;48.10;;;;;;5009378;28;20041;-69
2023/08/17 11:52:32;;;;;;;7.55;1.80;;;33.90;44.80;;;;;;5005428;28;20030;-69
2023/08/17 11:54:59;;;;;;;6.75;2.17;;;34.10;47.20;;;;;;5005841;28;20580;-69
2023/08/17 11:57:25;;;;;;;4.68;1.75;;;34.30;46.80;;;;;;5010551;28;20018;-69
2023/08/17 11:59:55;;;;;;;9.15;2.25;;;34.40;45.10;;;;;;5006683;28;20542;-69
2023/08/17 12:02:23;;;;;;;8.50;2.17;;;33.90;45.60;;;;;;5000477;28;20039;-70
2023/08/17 12:04:49;;;;;;;11.82;2.60;;;33.50;45.10;;;;;;5002127;28;20041;-69
2023/08/17 12:07:16;;;;;;;;;;;33.20;47.60;;;;;;5004094;28;20034;-70
2023/08/17 12:09:42;;;;;;;;;;;33.70;48.50;;;;;;5013512;28;20321;-70
2023/08/17 12:12:09;;;;;;;4.93;1.88;;;33.70;46.60;;;;;;5005433;28;20396;-70
2023/08/17 12:14:35;;;;;;;3.88;1.48;;;33.80;45.30;;;;;;5017188;28;20052;-70
2023/08/17 12:17:00;;;;;;;;;;;34.00;49.50;;;;;;5016377;28;20029;-69
2023/08/17 12:19:26;;;;;;;9.55;2.15;;;34.20;49.10;;;;;;5005369;28;19948;-70
2023/08/17 12:21:51;;;;;;;;;;;34.40;46.80;;;;;;5006896;28;20107;-69
2023/08/17 12:24:19;;;;;;;7.13;1.98;;;34.20;48.00;;;;;;5012057;28;19913;-70
2023/08/17 12:26:47;;;;;;;7.05;2.03;;;34.50;46.30;;;;;;5004952;28;20025;-70
2023/08/17 12:29:13;;;;;;;4.13;2.28;;;34.40;48.30;;;;;;5014201;28;20018;-70
2023/08/17 12:31:38;;;;;;;13.73;1.70;;;34.20;50.90;;;;;;5010094;28;20030;-70
2023/08/17 12:34:05;;;;;;;;;;;34.20;46.80;;;;;;5030249;28;20036;-69
2023/08/17 12:36:37;;;;;;;6.30;1.77;;;34.00;49.10;;;;;;5021124;28;19953;-70
2023/08/17 12:39:04;;;;;;;6.10;1.80;;;34.10;46.00;;;;;;5009279;28;20576;-71
2023/08/17 12:41:29;;;;;;;4.90;1.92;;;34.20;43.50;;;;;;5016115;28;20121;-71
2023/08/17 12:43:58;;;;;;;;;;;34.10;41.70;;;;;;5001618;28;20454;-71
2023/08/17 12:46:24;;;;;;;7.32;1.80;;;33.80;42.10;;;;;;5007786;28;19905;-70